Time;durP1;ratioP1;P1;durP2;ratioP2;P2;SDS_P1;SDS_P2;PMS_P1;PMS_P2;Temp;Humidity;BMP_temperature;BMP_pressure;BME280_temperature;BME280_humidity;BME280_pressure;Samples;Min_cycle;Max_cycle;Signal;HPM_P1;HPM_P2
2023/05/08 00:00:48;;;;;;;9.33;4.67;;;;;;;-141.97;49.37;47569.06;4993985;28;20163;-81
2023/05/08 00:03:13;;;;;;;7.43;4.50;;;;;;;-141.97;49.47;47526.75;4991884;28;20179;-80
2023/05/08 00:05:42;;;;;;;6.40;4.20;;;;;;;-141.97;49.66;47580.59;4992629;28;20175;-81
2023/05/08 00:08:07;;;;;;;6.50;4.60;;;;;;;-141.97;49.86;47605.56;4992696;28;20167;-81
2023/05/08 00:10:33;;;;;;;8.30;4.43;;;;;;;-141.97;49.62;47396.06;4993980;28;20164;-81
2023/05/08 00:12:58;;;;;;;7.50;4.70;;;;;;;-141.97;48.78;47582.50;4996923;28;20186;-81
2023/05/08 00:15:23;;;;;;;7.57;4.73;;;;;;;-141.97;49.35;47738.19;4994007;28;20202;-81
2023/05/08 00:17:49;;;;;;;6.63;4.50;;;;;;;-141.97;49.09;47624.78;4993234;28;20166;-81
2023/05/08 00:20:14;;;;;;;7.70;4.50;;;;;;;-141.97;49.40;47576.75;4992454;28;20171;-80
2023/05/08 00:22:40;;;;;;;6.03;4.47;;;;;;;-141.97;49.34;47586.34;4993023;28;20182;-81
2023/05/08 00:25:06;;;;;;;8.30;4.47;;;;;;;-141.97;49.12;47584.44;4993473;28;20168;-82
2023/05/08 00:27:32;;;;;;;8.40;4.73;;;;;;;-141.97;49.25;47553.69;4991199;28;20636;-81
2023/05/08 00:29:57;;;;;;;7.33;4.57;;;;;;;-141.97;49.28;47578.66;4991807;28;20270;-81
2023/05/08 00:32:23;;;;;;;7.67;4.43;;;;;;;-141.97;48.70;47572.91;4974799;28;20719;-81
2023/05/08 00:34:49;;;;;;;7.70;5.00;;;;;;;-141.97;48.61;47584.44;4972708;28;20172;-81
2023/05/08 00:37:14;;;;;;;6.80;4.83;;;;;;;-141.97;48.65;47576.75;4972913;28;20168;-81
2023/05/08 00:39:40;;;;;;;6.83;4.70;;;;;;;-141.97;48.77;47570.97;4971663;28;20239;-81
2023/05/08 00:42:05;;;;;;;7.03;4.90;;;;;;;-141.97;48.40;47519.06;4972201;28;20203;-81
2023/05/08 00:44:31;;;;;;;7.07;4.77;;;;;;;-141.97;48.38;47540.22;4972162;28;20172;-82
2023/05/08 00:46:56;;;;;;;6.30;4.97;;;;;;;-141.97;48.26;47561.38;4975168;28;20175;-82
2023/05/08 00:49:22;;;;;;;6.30;5.00;;;;;;;-141.97;48.85;47599.81;4990864;28;20195;-82
2023/05/08 00:51:51;;;;;;;7.87;4.93;;;;;;;-141.97;48.29;47574.81;4995425;28;20171;-82
2023/05/08 00:54:17;;;;;;;7.53;5.23;;;;;;;-141.97;48.44;47492.16;4995373;28;20195;-81
2023/05/08 00:56:44;;;;;;;9.67;5.33;;;;;;;-141.97;48.62;47544.06;4995660;28;20258;-81
2023/05/08 00:59:12;;;;;;;9.23;5.00;;;;;;;-141.97;48.41;47572.91;4995548;28;20167;-80
2023/05/08 01:01:39;;;;;;;8.00;5.10;;;;;;;-141.97;48.52;47588.28;4991458;28;20684;-82
2023/05/08 01:04:05;;;;;;;7.13;5.10;;;;;;;-141.97;48.81;47559.44;4993023;28;20219;-82
2023/05/08 01:06:31;;;;;;;9.73;5.23;;;;;;;-141.97;48.56;47546.00;4995449;28;20175;-82
2023/05/08 01:08:56;;;;;;;6.97;4.90;;;;;;;-141.97;48.57;47595.97;4995333;28;20190;-82
2023/05/08 01:12:04;;;;;;;8.03;5.00;;;;;;;-141.97;48.40;47586.34;4995039;28;20179;-81
2023/05/08 01:14:54;;;;;;;10.50;5.13;;;;;;;-141.97;49.32;47588.28;4975065;28;20188;-82
2023/05/08 01:17:35;;;;;;;6.97;4.60;;;;;;;-141.97;48.82;47613.25;4975376;28;20168;-82
2023/05/08 01:20:19;;;;;;;11.13;4.70;;;;;;;-141.97;48.41;47594.03;4974012;28;20218;-81
2023/05/08 01:23:20;;;;;;;5.80;4.60;;;;;;;-141.97;48.80;47580.59;4974693;28;20192;-82
2023/05/08 01:26:45;;;;;;;6.57;4.60;;;;;;;-141.97;48.44;47584.44;4974193;28;20237;-82
2023/05/08 01:29:41;;;;;;;7.73;4.70;;;;;;;-141.97;48.35;47561.38;4973221;28;20738;-82
2023/05/08 01:32:10;;;;;;;8.50;4.70;;;;;;;-141.97;48.67;47607.50;4957167;28;20207;-82
2023/05/08 01:34:43;;;;;;;7.07;4.30;;;;;;;-141.97;48.55;47580.59;4974239;28;20194;-81
2023/05/08 01:37:15;;;;;;;9.43;4.90;;;;;;;-141.97;48.53;47611.34;4973674;28;20176;-81
2023/05/08 01:39:49;;;;;;;7.33;4.33;;;;;;;-141.97;49.31;47559.44;4973149;28;20228;-82
2023/05/08 01:42:43;;;;;;;8.30;4.60;;;;;;;-141.97;48.76;47584.44;4973382;28;20180;-82
2023/05/08 01:45:20;;;;;;;7.03;4.70;;;;;;;-141.97;49.52;47599.81;4973780;28;20196;-80
2023/05/08 01:47:54;;;;;;;9.87;4.80;;;;;;;-141.97;49.82;47692.06;4973156;28;20191;-81
2023/05/08 01:50:32;;;;;;;8.70;5.13;;;;;;;-141.97;50.09;47534.44;4973395;28;20203;-81
2023/05/08 01:53:04;;;;;;;8.33;5.33;;;;;;;-141.97;50.61;47588.28;4973754;28;20203;-81
2023/05/08 01:55:33;;;;;;;10.07;5.30;;;;;;;-141.97;50.12;47603.66;4957615;28;20171;-82
2023/05/08 01:58:03;;;;;;;7.53;4.90;;;;;;;-141.97;49.90;47536.38;4973541;28;20164;-81
2023/05/08 02:00:29;;;;;;;11.80;5.03;;;;;;;-141.97;50.09;47584.44;4988876;28;20207;-80
2023/05/08 02:02:55;;;;;;;9.17;4.80;;;;;;;-141.97;50.41;47557.53;4994730;28;20168;-80
2023/05/08 02:05:22;;;;;;;11.90;4.77;;;;;;;-141.97;49.99;47570.97;4994861;28;20194;-80
2023/05/08 02:07:48;;;;;;;9.07;5.13;;;;;;;-141.97;50.16;47576.75;4994030;28;20167;-81
2023/05/08 02:10:15;;;;;;;7.00;4.70;;;;;;;-141.97;49.91;47695.91;4994171;28;20187;-81
2023/05/08 02:12:42;;;;;;;9.13;4.80;;;;;;;-141.97;50.25;47569.06;4994337;28;20679;-80
2023/05/08 02:15:12;;;;;;;7.33;4.80;;;;;;;-141.97;50.15;47547.91;4994574;28;20226;-82
2023/05/08 02:17:39;;;;;;;8.97;4.70;;;;;;;-141.97;50.03;47572.91;4994423;28;20214;-81
2023/05/08 02:20:06;;;;;;;5.80;4.50;;;;;;;-141.97;50.31;47549.84;4976776;28;20267;-81
2023/05/08 02:22:33;;;;;;;8.17;5.10;;;;;;;-141.97;50.62;47553.69;4994077;28;20179;-82
2023/05/08 02:25:00;;;;;;;7.77;4.40;;;;;;;-141.97;50.75;47634.41;4994306;28;20262;-81
2023/05/08 02:27:27;;;;;;;7.67;4.77;;;;;;;-141.97;50.97;47626.72;4994921;28;20178;-82
2023/05/08 02:29:54;;;;;;;7.07;4.50;;;;;;;-141.97;50.06;47586.34;4994458;28;20611;-82
2023/05/08 02:32:21;;;;;;;6.50;4.37;;;;;;;-141.97;50.41;47565.22;4993260;28;20171;-81
2023/05/08 02:34:49;;;;;;;6.47;4.67;;;;;;;-141.97;50.49;47590.19;4994232;28;20537;-81
2023/05/08 02:37:18;;;;;;;6.60;4.50;;;;;;;-141.97;50.14;47626.72;4994003;28;20164;-81
2023/05/08 02:39:46;;;;;;;7.43;4.50;;;;;;;-141.97;50.61;47515.22;4992949;28;20231;-81
2023/05/08 02:42:11;;;;;;;9.27;4.63;;;;;;;-141.97;50.72;47582.50;4993655;28;20163;-81
2023/05/08 02:44:37;;;;;;;6.43;4.40;;;;;;;-141.97;50.87;47599.81;4994307;28;20159;-82
2023/05/08 02:47:20;;;;;;;7.90;4.87;;;;;;;-141.97;51.30;47592.13;4993428;28;20590;-81
2023/05/08 02:49:52;;;;;;;10.53;4.87;;;;;;;-141.97;50.93;47615.19;4993205;28;20199;-81
2023/05/08 02:52:27;;;;;;;7.23;4.70;;;;;;;-141.97;50.51;47580.59;4998853;28;20176;-81
2023/05/08 02:55:04;;;;;;;8.20;4.93;;;;;;;-141.97;50.08;47584.44;5015864;28;20158;-82
2023/05/08 02:57:45;;;;;;;7.90;4.50;;;;;;;-141.97;50.03;47599.81;4996767;28;20262;-81
2023/05/08 03:00:22;;;;;;;5.93;4.30;;;;;;;-141.97;50.67;47611.34;4994393;28;20703;-82
2023/05/08 03:02:51;;;;;;;8.33;5.10;;;;;;;-141.97;50.16;47588.28;4993857;28;20159;-81
2023/05/08 03:05:24;;;;;;;8.27;4.87;;;;;;;-141.97;49.88;47569.06;4992619;28;20537;-81
2023/05/08 03:07:53;;;;;;;8.37;5.23;;;;;;;-141.97;49.88;47592.13;4993672;28;20565;-81
2023/05/08 03:10:21;;;;;;;10.10;5.50;;;;;;;-141.97;50.24;47609.41;4993318;28;20195;-81
2023/05/08 03:12:50;;;;;;;9.43;5.00;;;;;;;-141.97;49.57;47576.75;4990102;28;20192;-81
2023/05/08 03:15:30;;;;;;;7.13;5.37;;;;;;;-141.97;49.74;47605.56;4977831;28;20188;-82
2023/05/08 03:18:01;;;;;;;11.53;5.43;;;;;;;-141.97;49.91;47605.56;4974925;28;20195;-81
2023/05/08 03:20:33;;;;;;;14.97;7.83;;;;;;;-141.97;52.51;47538.28;4991016;28;20175;-80
2023/05/08 03:22:59;;;;;;;10.00;6.70;;;;;;;-141.97;53.18;47576.75;4991947;28;20186;-81
2023/05/08 03:25:26;;;;;;;10.83;6.33;;;;;;;-141.97;53.52;47624.78;4973109;28;20176;-81
2023/05/08 03:27:52;;;;;;;9.40;6.50;;;;;;;-141.97;53.94;47553.69;4974584;28;20603;-81
2023/05/08 03:30:19;;;;;;;13.73;7.10;;;;;;;-141.97;54.60;47574.81;4975674;28;20553;-81
2023/05/08 03:32:46;;;;;;;12.13;6.70;;;;;;;-141.97;54.65;47524.84;4976249;28;20188;-82
2023/05/08 03:35:14;;;;;;;10.70;6.97;;;;;;;-141.97;55.05;47576.75;4974670;28;20172;-81
2023/05/08 03:37:41;;;;;;;11.97;6.63;;;;;;;-141.97;55.45;47540.22;4974062;28;20726;-82
2023/05/08 03:40:07;;;;;;;11.30;7.20;;;;;;;-141.97;55.41;47501.78;4973830;28;20187;-82
2023/05/08 03:42:33;;;;;;;13.97;7.23;;;;;;;-141.97;55.64;47546.00;4973871;28;20299;-82
2023/05/08 03:45:01;;;;;;;13.93;7.47;;;;;;;-141.97;56.30;47590.19;4974142;28;20190;-81
2023/05/08 03:47:27;;;;;;;15.00;7.53;;;;;;;-141.97;56.57;47561.38;4974071;28;20207;-81
2023/05/08 03:49:54;;;;;;;14.33;8.83;;;;;;;-141.97;56.44;47620.94;4974142;28;20734;-82
2023/05/08 03:52:19;;;;;;;14.43;8.37;;;;;;;-141.97;56.59;47592.13;4971388;28;20652;-83
2023/05/08 03:54:45;;;;;;;9.73;7.40;;;;;;;-141.97;56.81;47582.50;4973759;28;20195;-82
2023/05/08 03:57:11;;;;;;;14.17;8.00;;;;;;;-141.97;57.23;47601.72;4973497;28;20259;-82
2023/05/08 03:59:58;;;;;;;18.93;9.70;;;;;;;-141.97;56.88;47594.03;4974268;28;20219;-82
2023/05/08 04:02:35;;;;;;;17.97;9.37;;;;;;;-141.97;57.23;47588.28;4983144;28;20187;-83
2023/05/08 04:05:19;;;;;;;15.23;9.97;;;;;;;-141.97;57.19;47626.72;4992620;28;20567;-81
2023/05/08 04:08:15;;;;;;;15.67;10.93;;;;;;;-141.97;57.43;47617.09;4993706;28;20218;-82
2023/05/08 04:10:50;;;;;;;28.90;12.47;;;;;;;-141.97;58.01;47595.97;4990947;28;20202;-81
2023/05/08 04:13:21;;;;;;;17.90;9.00;;;;;;;-141.97;57.69;47567.13;4974838;28;20187;-81
2023/05/08 04:16:18;;;;;;;14.97;8.90;;;;;;;-141.97;58.38;47590.19;4991048;28;20195;-81
2023/05/08 04:18:47;;;;;;;15.17;8.73;;;;;;;-141.97;59.48;47530.59;4970787;28;20694;-81
2023/05/08 04:21:18;;;;;;;16.93;9.53;;;;;;;-141.97;60.35;47546.00;4971889;28;20731;-81
2023/05/08 04:23:46;;;;;;;20.63;10.10;;;;;;;-141.97;60.33;47584.44;4975330;28;20200;-81
2023/05/08 04:26:14;;;;;;;13.73;9.30;;;;;;;-141.97;59.37;47597.88;4975115;28;20178;-82
2023/05/08 04:28:40;;;;;;;15.23;9.53;;;;;;;-141.97;58.49;47690.16;4974826;28;20415;-82
2023/05/08 04:31:07;;;;;;;20.97;9.40;;;;;;;-141.97;58.33;47595.97;4959200;28;20194;-82
2023/05/08 04:33:34;;;;;;;16.13;9.53;;;;;;;-141.97;57.82;47569.06;4974898;28;20227;-81
2023/05/08 04:36:02;;;;;;;13.50;9.10;;;;;;;-141.97;57.57;47630.56;4974723;28;20203;-81
2023/05/08 04:38:28;;;;;;;26.93;18.33;;;;;;;-141.97;57.41;47607.50;4973956;28;20290;-82
2023/05/08 04:40:54;;;;;;;37.80;25.00;;;;;;;-141.97;55.96;47740.13;4974510;28;20196;-81
2023/05/08 04:43:19;;;;;;;39.73;25.10;;;;;;;-141.97;55.32;47540.22;4974537;28;20656;-82
2023/05/08 04:45:45;;;;;;;29.33;17.23;;;;;;;-141.97;54.91;47557.53;4974565;28;20613;-81
2023/05/08 04:48:10;;;;;;;29.87;18.67;;;;;;;-141.97;55.47;47607.50;4960529;28;20185;-80
2023/05/08 04:50:36;;;;;;;18.80;9.80;;;;;;;-141.97;56.06;47567.13;4954465;29;20188;-83
2023/05/08 04:53:01;;;;;;;15.30;8.20;;;;;;;-141.97;55.29;47722.81;4955080;29;20700;-80
2023/05/08 04:55:27;;;;;;;19.70;8.20;;;;;;;-141.97;55.38;47601.72;4956400;28;20246;-80
2023/05/08 04:57:52;;;;;;;13.20;8.43;;;;;;;-141.97;55.04;47588.28;4976721;28;20537;-80
2023/05/08 05:00:18;;;;;;;15.73;8.77;;;;;;;-141.97;53.53;47515.22;4975790;28;20568;-81
2023/05/08 05:02:43;;;;;;;16.77;8.87;;;;;;;-141.97;52.57;47597.88;4976782;28;20183;-81
2023/05/08 05:05:10;;;;;;;16.40;9.13;;;;;;;-141.97;52.49;47572.91;4991163;28;20621;-81
2023/05/08 05:07:35;;;;;;;21.90;15.67;;;;;;;-141.97;52.95;47599.81;4995540;28;20626;-80
2023/05/08 05:10:00;;;;;;;25.63;17.47;;;;;;;-141.97;52.88;47620.94;4995652;28;20196;-81
2023/05/08 05:12:26;;;;;;;18.20;12.50;;;;;;;-141.97;52.26;47736.28;4995376;28;20171;-80
2023/05/08 05:14:51;;;;;;;16.97;11.20;;;;;;;-141.97;50.84;47561.38;4995612;28;20554;-77
2023/05/08 05:17:17;;;;;;;26.70;15.90;;;;;;;-141.97;50.55;47570.97;4994009;28;20171;-80
2023/05/08 05:19:42;;;;;;;15.50;10.47;;;;;;;-141.97;49.37;47594.03;4995282;28;20628;-80
2023/05/08 05:22:08;;;;;;;13.77;8.83;;;;;;;-141.97;48.88;47599.81;4995748;28;20247;-81
2023/05/08 05:24:36;;;;;;;20.13;8.90;;;;;;;-141.97;48.12;47569.06;4995118;28;20484;-81
2023/05/08 05:27:01;;;;;;;14.73;8.40;;;;;;;-141.97;47.73;47555.59;4995385;28;20621;-82
2023/05/08 05:29:27;;;;;;;23.33;12.93;;;;;;;-141.97;47.13;47499.84;4995311;28;20278;-81
2023/05/08 05:31:52;;;;;;;30.80;20.67;;;;;;;-141.97;47.18;47538.28;4986367;28;20183;-81
2023/05/08 05:34:18;;;;;;;39.13;21.90;;;;;;;-141.97;47.28;47561.38;4975081;28;20168;-82
2023/05/08 05:36:43;;;;;;;31.63;19.40;;;;;;;-141.97;46.86;47509.47;4976083;28;20258;-81
2023/05/08 05:39:09;;;;;;;22.87;15.40;;;;;;;-141.97;46.23;47634.41;4974239;28;20322;-81
2023/05/08 05:41:35;;;;;;;16.30;10.60;;;;;;;-141.97;45.60;47486.41;4975736;28;20179;-78
2023/05/08 05:44:00;;;;;;;16.60;9.40;;;;;;;-141.97;45.00;47515.22;4975634;28;20164;-80
2023/05/08 05:46:31;;;;;;;12.93;8.10;;;;;;;-141.97;44.20;47544.06;4975897;28;20179;-81
2023/05/08 05:48:57;;;;;;;14.70;7.40;;;;;;;-141.97;44.14;47590.19;4976338;28;20187;-81
2023/05/08 05:51:22;;;;;;;14.40;7.17;;;;;;;-141.97;42.84;47642.09;4975692;28;20656;-81
2023/05/08 05:53:48;;;;;;;11.53;6.63;;;;;;;-141.97;43.19;47576.75;4981122;28;20172;-81
2023/05/08 05:56:13;;;;;;;11.77;6.00;;;;;;;-141.97;42.34;47515.22;4980283;28;20156;-82
2023/05/08 05:58:43;;;;;;;9.47;4.93;;;;;;;-141.97;40.40;47536.38;4976647;28;20268;-81
2023/05/08 06:01:09;;;;;;;8.27;4.80;;;;;;;-141.97;39.97;47576.75;4976412;28;20153;-81
2023/05/08 06:03:34;;;;;;;6.90;4.83;;;;;;;-141.97;39.74;47563.28;4975481;28;20175;-82
2023/05/08 06:05:59;;;;;;;15.83;5.93;;;;;;;-141.97;40.00;47534.44;4975789;28;20170;-81
2023/05/08 06:08:25;;;;;;;9.13;5.60;;;;;;;-141.97;39.91;47586.34;4975160;28;20168;-81
2023/05/08 06:10:50;;;;;;;10.57;6.00;;;;;;;-141.97;39.52;47522.91;4975765;28;20650;-81
2023/05/08 06:13:16;;;;;;;10.67;5.90;;;;;;;-141.97;39.87;47553.69;4983510;28;20211;-79
2023/05/08 06:15:41;;;;;;;9.50;6.07;;;;;;;-141.97;39.48;47582.50;4991321;28;20176;-80
2023/05/08 06:18:06;;;;;;;10.47;6.20;;;;;;;-141.97;40.14;47655.53;4991947;28;20156;-81
2023/05/08 06:20:32;;;;;;;9.43;6.20;;;;;;;-141.97;39.28;47594.03;4989098;28;20203;-80
2023/05/08 06:22:57;;;;;;;10.83;6.23;;;;;;;-141.97;39.74;47565.22;4978132;28;20168;-81
2023/05/08 06:25:23;;;;;;;10.77;5.57;;;;;;;-141.97;39.72;47682.47;4975821;28;20192;-81
2023/05/08 06:27:48;;;;;;;10.20;5.67;;;;;;;-141.97;39.32;47544.06;4975693;28;20247;-82
2023/05/08 06:30:14;;;;;;;7.20;5.20;;;;;;;-141.97;38.87;47559.44;4975412;28;20203;-81
2023/05/08 06:32:39;;;;;;;9.23;5.40;;;;;;;-141.97;39.12;47526.75;4975697;28;20179;-81
2023/05/08 06:35:05;;;;;;;11.20;5.80;;;;;;;-141.97;39.23;47592.13;4975807;28;20202;-78
2023/05/08 06:37:30;;;;;;;13.63;5.57;;;;;;;-141.97;38.75;47534.44;4974863;28;20238;-82
2023/05/08 06:40:09;;;;;;;8.07;5.37;;;;;;;-141.97;38.42;47565.22;4973829;28;20700;-83
2023/05/08 06:42:35;;;;;;;8.90;4.60;;;;;;;-141.97;37.79;47634.41;4974223;28;20186;-82
2023/05/08 06:45:01;;;;;;;7.70;4.93;;;;;;;-141.97;37.41;47496.00;4973960;28;20270;-80
2023/05/08 06:47:26;;;;;;;6.97;4.60;;;;;;;-141.97;37.44;47574.81;4985246;28;20179;-83
2023/05/08 06:49:52;;;;;;;9.33;4.93;;;;;;;-141.97;37.42;47574.81;4994574;28;20647;-82
2023/05/08 06:52:19;;;;;;;8.13;5.00;;;;;;;-141.97;37.94;47565.22;4993643;28;20178;-82
2023/05/08 06:54:45;;;;;;;8.83;5.73;;;;;;;-141.97;38.49;47465.25;4994961;28;20534;-83
2023/05/08 06:57:12;;;;;;;8.83;5.07;;;;;;;-141.97;38.14;47544.06;4994631;28;20171;-84
2023/05/08 06:59:37;;;;;;;9.30;5.30;;;;;;;-141.97;38.21;47540.22;4993551;28;20194;-82
2023/05/08 07:02:03;;;;;;;8.13;5.57;;;;;;;-141.97;38.20;47496.00;4995016;28;20171;-82
2023/05/08 07:04:28;;;;;;;9.57;6.07;;;;;;;-141.97;38.23;47480.63;4994864;28;20163;-86
2023/05/08 07:06:54;;;;;;;9.93;5.43;;;;;;;-141.97;37.31;47699.75;4993071;28;20230;-82
2023/05/08 07:09:19;;;;;;;11.53;5.07;;;;;;;-141.97;36.88;47561.38;4993660;28;20198;-83
2023/05/08 07:11:45;;;;;;;9.27;5.27;;;;;;;-141.97;37.57;47536.38;4994777;28;20199;-83
2023/05/08 07:14:10;;;;;;;11.90;5.87;;;;;;;-141.97;37.86;47743.97;4994714;28;20155;-83
2023/05/08 07:16:36;;;;;;;8.80;5.10;;;;;;;-141.97;37.54;47484.47;4994558;28;20171;-84
2023/05/08 07:19:02;;;;;;;8.47;5.17;;;;;;;-141.97;37.21;47474.88;4995523;28;20673;-84
2023/05/08 07:21:28;;;;;;;9.00;5.33;;;;;;;-141.97;36.93;47521.00;4994891;28;20167;-83
2023/05/08 07:23:53;;;;;;;8.30;5.83;;;;;;;-141.97;36.38;47511.38;4993533;28;20250;-83
2023/05/08 07:26:20;;;;;;;12.70;5.93;;;;;;;-141.97;35.96;47482.56;4994236;28;20202;-83
2023/05/08 07:28:45;;;;;;;9.27;5.53;;;;;;;-141.97;36.17;47465.25;4991873;28;20668;-83
2023/05/08 07:31:11;;;;;;;8.17;5.23;;;;;;;-141.97;36.18;47453.72;4993479;28;20185;-83
2023/05/08 07:33:37;;;;;;;8.93;5.50;;;;;;;-141.97;35.71;47522.91;4993688;28;20640;-83
2023/05/08 07:36:02;;;;;;;9.43;5.53;;;;;;;-141.97;35.17;47474.88;4992469;28;20587;-83
2023/05/08 07:38:28;;;;;;;10.73;5.40;;;;;;;-141.97;35.17;47567.13;4993255;28;20263;-83
2023/05/08 07:40:56;;;;;;;8.67;5.10;;;;;;;-141.97;35.34;47538.28;4994239;28;20663;-87
2023/05/08 07:43:23;;;;;;;9.57;5.30;;;;;;;-141.97;35.60;47544.06;4991931;28;20190;-84
2023/05/08 07:45:48;;;;;;;7.57;5.33;;;;;;;-141.97;35.85;47330.72;4994137;28;20554;-84
2023/05/08 07:48:13;;;;;;;8.77;5.37;;;;;;;-141.97;36.33;47513.31;4987279;28;20283;-84
2023/05/08 07:50:39;;;;;;;8.40;5.20;;;;;;;-141.97;35.79;47490.25;4974771;28;20180;-85
2023/05/08 07:53:05;;;;;;;8.00;5.63;;;;;;;-141.97;35.37;47530.59;4974042;28;20168;-85
2023/05/08 07:55:31;;;;;;;10.90;5.50;;;;;;;-141.97;35.35;47507.53;4976115;28;20620;-83
2023/05/08 07:57:56;;;;;;;9.77;5.37;;;;;;;-141.97;34.88;47546.00;4978086;28;20172;-83
2023/05/08 08:00:22;;;;;;;9.63;6.30;;;;;;;-141.97;35.48;47499.84;4977590;28;20263;-83
2023/05/08 08:02:47;;;;;;;8.57;6.03;;;;;;;-141.97;35.85;47440.28;4976344;28;20522;-83
2023/05/08 08:05:12;;;;;;;11.63;6.30;;;;;;;-141.97;36.35;47538.28;4977866;28;20243;-83
2023/05/08 08:07:38;;;;;;;8.87;5.83;;;;;;;-141.97;36.28;47542.16;4977858;28;20617;-84
2023/05/08 08:10:04;;;;;;;8.20;6.23;;;;;;;-141.97;36.13;47507.53;4997588;28;20231;-82
2023/05/08 08:12:30;;;;;;;9.87;6.47;;;;;;;-141.97;36.51;47715.13;4997620;28;20218;-83
2023/05/08 08:14:56;;;;;;;10.63;6.07;;;;;;;-141.97;35.89;47542.16;4997503;28;20876;-83
2023/05/08 08:17:21;;;;;;;9.33;6.40;;;;;;;-141.97;35.43;47496.00;4997882;28;20151;-82
2023/05/08 08:19:47;;;;;;;8.03;6.13;;;;;;;-141.97;35.41;47499.84;4998117;28;20164;-83
2023/05/08 08:22:13;;;;;;;11.43;6.47;;;;;;;-141.97;35.46;47707.44;4997189;28;20187;-83
2023/05/08 08:24:39;;;;;;;8.37;6.00;;;;;;;-141.97;35.64;47499.84;4997063;28;20218;-82
2023/05/08 08:27:04;;;;;;;10.13;6.07;;;;;;;-141.97;36.67;47461.41;4996574;28;20175;-82
2023/05/08 08:29:30;;;;;;;10.13;6.17;;;;;;;-141.97;35.25;47519.06;4996430;28;20230;-82
2023/05/08 08:31:55;;;;;;;10.60;5.73;;;;;;;-141.97;35.14;47497.94;4996805;28;20163;-83
2023/05/08 08:34:21;;;;;;;9.63;6.00;;;;;;;-141.97;34.43;47476.78;4996387;28;20163;-82
2023/05/08 08:36:47;;;;;;;8.97;5.67;;;;;;;-141.97;34.29;47507.53;4996948;28;20600;-82
2023/05/08 08:39:12;;;;;;;11.07;6.17;;;;;;;-141.97;33.97;47499.84;4995871;28;20301;-82
2023/05/08 08:41:38;;;;;;;10.93;6.27;;;;;;;-141.97;33.75;47480.63;4996976;28;20167;-82
2023/05/08 08:44:04;;;;;;;13.63;6.60;;;;;;;-141.97;33.40;47503.69;4995641;28;20170;-82
2023/05/08 08:46:32;;;;;;;11.03;6.63;;;;;;;-141.97;33.41;47509.47;4996451;28;20182;-82
2023/05/08 08:49:00;;;;;;;11.37;6.50;;;;;;;-141.97;34.31;47432.59;4996658;28;20253;-83
2023/05/08 08:51:35;;;;;;;10.17;6.50;;;;;;;-141.97;34.56;47503.69;4996822;28;20174;-83
2023/05/08 08:54:10;;;;;;;15.90;7.00;;;;;;;-141.97;34.56;47521.00;4995243;28;20171;-83
2023/05/08 08:56:38;;;;;;;10.90;6.53;;;;;;;-141.97;34.14;47461.41;4996963;28;20163;-83
2023/05/08 08:59:04;;;;;;;9.70;6.70;;;;;;;-141.97;34.54;47509.47;4997088;28;20152;-83
2023/05/08 09:01:34;;;;;;;10.97;6.43;;;;;;;-141.97;34.56;47534.44;5006310;28;20178;-79
2023/05/08 09:04:00;;;;;;;12.43;6.90;;;;;;;-141.97;34.43;47492.16;4996150;28;20171;-82
2023/05/08 09:06:26;;;;;;;9.30;6.40;;;;;;;-141.97;33.84;47476.78;4996693;28;20168;-83
2023/05/08 09:08:55;;;;;;;9.20;6.10;;;;;;;-141.97;33.64;47459.50;4997448;28;20548;-82
2023/05/08 09:11:20;;;;;;;9.33;5.70;;;;;;;-141.97;33.42;47459.50;4996877;28;20186;-82
2023/05/08 09:13:46;;;;;;;10.23;5.87;;;;;;;-141.97;33.61;47511.38;4996626;28;20646;-83
2023/05/08 09:16:11;;;;;;;9.10;6.47;;;;;;;-141.97;33.36;47469.09;4994250;28;20198;-81
2023/05/08 09:18:37;;;;;;;9.00;6.00;;;;;;;-141.97;33.26;47496.00;4997620;28;20218;-82
2023/05/08 09:21:05;;;;;;;8.83;5.97;;;;;;;-141.97;33.63;47659.38;4996369;28;20171;-82
2023/05/08 09:23:30;;;;;;;9.13;6.10;;;;;;;-141.97;33.23;47486.41;4995978;28;20163;-83
2023/05/08 09:25:56;;;;;;;8.97;6.30;;;;;;;-141.97;33.02;47497.94;4995926;28;20252;-82
2023/05/08 09:28:23;;;;;;;9.47;6.40;;;;;;;-141.97;32.41;47472.94;4995375;28;20612;-81
2023/05/08 09:30:50;;;;;;;11.87;7.00;;;;;;;-141.97;32.74;47386.47;4995594;28;20168;-83
2023/05/08 09:33:16;;;;;;;10.23;6.60;;;;;;;-141.97;33.20;47446.03;4994933;28;20161;-83
2023/05/08 09:35:41;;;;;;;13.00;7.45;;;;;;;-141.97;32.84;47449.88;4995004;28;20545;-82
2023/05/08 09:38:07;;;;;;;9.13;6.80;;;;;;;-141.97;33.06;47453.72;4995088;28;20224;-82
2023/05/08 09:40:32;;;;;;;10.85;7.03;;;;;;;-141.97;32.37;47449.88;4995385;28;20161;-82
2023/05/08 09:43:11;;;;;;;9.55;7.78;;;;;;;-141.97;32.22;47436.44;4996837;28;20296;-83
2023/05/08 09:45:38;;;;;;;10.20;7.47;;;;;;;-141.97;32.36;47497.94;4997071;28;20187;-83
2023/05/08 09:48:04;;;;;;;9.48;6.28;;;;;;;-141.97;32.47;47492.16;4995791;28;20228;-82
2023/05/08 09:50:31;;;;;;;11.10;6.22;;;;;;;-141.97;33.34;47455.66;4995070;28;20199;-82
2023/05/08 09:52:57;;;;;;;9.87;6.47;;;;;;;-141.97;33.50;47465.25;4993960;28;20174;-82
2023/05/08 09:55:23;;;;;;;11.13;6.60;;;;;;;-141.97;33.72;47471.03;4995434;28;20171;-83
2023/05/08 09:57:57;;;;;;;8.87;6.60;;;;;;;-141.97;33.72;47465.25;4994745;28;20178;-82
2023/05/08 10:00:24;;;;;;;9.93;6.50;;;;;;;-141.97;33.00;47465.25;4994691;28;20669;-82
2023/05/08 10:03:08;;;;;;;8.05;6.18;;;;;;;-141.97;32.93;47471.03;4994755;28;20179;-83
2023/05/08 10:05:35;;;;;;;11.55;7.20;;;;;;;-141.97;32.86;47486.41;4995155;28;20173;-83
2023/05/08 10:08:21;;;;;;;11.52;7.10;;;;;;;-141.97;32.56;47488.31;4993042;28;20203;-83
2023/05/08 10:10:47;;;;;;;11.45;7.13;;;;;;;-141.97;33.07;47451.81;4995028;28;20661;-81
2023/05/08 10:13:12;;;;;;;9.95;6.75;;;;;;;-141.97;33.55;47426.81;4994396;28;20165;-82
2023/05/08 10:15:41;;;;;;;8.88;6.43;;;;;;;-141.97;33.68;47480.63;4992782;28;20175;-81
2023/05/08 10:18:10;;;;;;;9.30;6.47;;;;;;;-141.97;33.23;47484.47;4993332;28;20643;-82
2023/05/08 10:20:41;;;;;;;10.63;7.47;;;;;;;-141.97;32.70;47449.88;4993730;28;20536;-83
2023/05/08 10:23:10;;;;;;;12.85;7.75;;;;;;;-141.97;33.12;47446.03;4994414;28;20169;-82
2023/05/08 10:25:42;;;;;;;11.93;6.95;;;;;;;-141.97;32.79;47472.94;4994727;28;20167;-82
2023/05/08 10:28:35;;;;;;;11.35;7.65;;;;;;;-141.97;33.00;47392.22;4994238;28;20195;-82
2023/05/08 10:31:04;;;;;;;10.68;7.90;;;;;;;-141.97;32.92;47461.41;4993399;28;20347;-82
2023/05/08 10:33:30;;;;;;;11.48;7.45;;;;;;;-141.97;32.63;47444.13;4996921;28;20166;-82
2023/05/08 10:35:56;;;;;;;10.18;7.10;;;;;;;-141.97;32.57;47421.06;4996440;28;20170;-83
2023/05/08 10:38:23;;;;;;;10.88;7.63;;;;;;;-141.97;32.61;47434.50;4993484;28;20360;-82
2023/05/08 10:40:51;;;;;;;10.93;7.50;;;;;;;-141.97;32.94;47446.03;4994118;28;20743;-82
2023/05/08 10:43:18;;;;;;;11.10;8.13;;;;;;;-141.97;32.96;47465.25;4993654;28;20175;-80
2023/05/08 10:45:44;;;;;;;12.52;8.10;;;;;;;-141.97;33.05;47472.94;4992955;28;20184;-81
2023/05/08 10:48:22;;;;;;;14.10;8.02;;;;;;;-141.97;33.03;47442.19;4993538;28;20170;-82
2023/05/08 10:51:08;;;;;;;9.65;7.78;;;;;;;-141.97;33.02;47457.56;4992838;28;20226;-82
2023/05/08 10:53:51;;;;;;;11.70;7.90;;;;;;;-141.97;32.95;47438.34;4993925;28;20163;-82
2023/05/08 10:56:16;;;;;;;11.73;7.47;;;;;;;-141.97;32.83;47455.66;4992244;28;20217;-81
2023/05/08 10:58:42;;;;;;;10.68;7.40;;;;;;;-141.97;33.71;47453.72;4993578;28;20221;-82
2023/05/08 11:01:07;;;;;;;10.98;8.10;;;;;;;-141.97;33.48;47451.81;4993115;28;20220;-81
2023/05/08 11:03:44;;;;;;;9.43;8.20;;;;;;;-141.97;33.45;47480.63;4993671;28;20208;-82
2023/05/08 11:06:10;;;;;;;10.75;7.97;;;;;;;-141.97;33.29;47580.59;4992990;28;20547;-81
2023/05/08 11:08:47;;;;;;;8.70;7.30;;;;;;;-141.97;33.75;47555.59;4993115;28;20273;-81
2023/05/08 11:11:20;;;;;;;11.43;7.72;;;;;;;-141.97;33.46;47446.03;4992932;28;20162;-81
2023/05/08 11:14:08;;;;;;;11.43;8.52;;;;;;;-141.97;32.97;47472.94;4992471;28;20166;-81
2023/05/08 11:17:02;;;;;;;14.43;8.27;;;;;;;-141.97;33.44;47444.13;4993130;28;20280;-81
2023/05/08 11:19:27;;;;;;;12.02;8.65;;;;;;;-141.97;32.80;47409.53;4991590;28;20212;-81